Time;durP1;ratioP1;P1;durP2;ratioP2;P2;SDS_P1;SDS_P2;PMS_P1;PMS_P2;Temp;Humidity;BMP_temperature;BMP_pressure;BME280_temperature;BME280_humidity;BME280_pressure;Samples;Min_cycle;Max_cycle;Signal;HPM_P1;HPM_P2
2022/02/24 00:01:04;;;;;;;15.95;4.53;;;;;;;21.81;15.67;98994.19;5095073;28;20060;-76
2022/02/24 00:03:33;;;;;;;19.30;5.95;;;;;;;22.01;15.57;98987.84;5094698;28;20111;-75
2022/02/24 00:05:59;;;;;;;16.88;5.40;;;;;;;22.26;15.16;98995.44;5090498;28;20032;-76
2022/02/24 00:08:25;;;;;;;16.00;4.93;;;;;;;22.49;15.17;98985.44;5093974;28;20040;-76
2022/02/24 00:10:51;;;;;;;12.05;3.80;;;;;;;22.07;15.68;98987.44;5094462;28;20020;-76
2022/02/24 00:13:18;;;;;;;10.15;4.93;;;;;;;21.86;15.64;98988.22;5094564;28;20036;-75
2022/02/24 00:15:44;;;;;;;15.27;4.53;;;;;;;22.07;15.64;98979.88;5094479;28;20109;-75
2022/02/24 00:18:11;;;;;;;13.10;4.63;;;;;;;22.32;15.54;98985.44;5091930;28;20036;-75
2022/02/24 00:20:37;;;;;;;14.50;4.10;;;;;;;22.48;15.13;98981.03;5093676;28;20032;-75
2022/02/24 00:23:03;;;;;;;11.95;4.43;;;;;;;22.23;15.08;98991.44;5094160;28;20507;-76
2022/02/24 00:25:29;;;;;;;13.50;4.63;;;;;;;21.96;15.91;98991.03;5094524;28;20052;-75
2022/02/24 00:27:55;;;;;;;16.15;4.50;;;;;;;21.52;16.30;98987.72;5094008;28;20039;-75
2022/02/24 00:30:21;;;;;;;14.00;4.85;;;;;;;21.65;16.00;98983.38;5094795;28;20039;-75
2022/02/24 00:32:48;;;;;;;10.90;4.70;;;;;;;21.80;15.90;98984.19;5076195;28;20465;-75
2022/02/24 00:35:14;;;;;;;15.15;4.38;;;;;;;21.65;16.17;98986.16;5084933;28;20099;-76
2022/02/24 00:37:41;;;;;;;12.32;3.40;;;;;;;21.69;16.18;98975.78;5092042;28;20039;-75
2022/02/24 00:40:07;;;;;;;11.40;4.28;;;;;;;21.70;16.00;98973.78;5094595;28;20058;-75
2022/02/24 00:42:34;;;;;;;11.73;4.32;;;;;;;21.66;16.21;98968.19;5088208;28;20033;-76
2022/02/24 00:45:00;;;;;;;13.65;3.97;;;;;;;21.89;15.99;98967.88;5072377;28;20025;-75
2022/02/24 00:47:26;;;;;;;14.07;4.00;;;;;;;21.72;15.69;98957.41;5084612;28;20460;-76
2022/02/24 00:49:52;;;;;;;16.08;4.63;;;;;;;21.73;15.91;98964.59;5091425;28;20032;-75
2022/02/24 00:52:18;;;;;;;16.65;4.53;;;;;;;21.97;15.77;98952.69;5088938;28;20031;-75
2022/02/24 00:54:47;;;;;;;8.80;3.58;;;;;;;22.26;15.59;98950.69;5089411;28;20043;-76
2022/02/24 00:57:13;;;;;;;10.90;3.80;;;;;;;22.44;15.29;98952.25;5092534;28;20028;-76
2022/02/24 00:59:39;;;;;;;14.75;4.75;;;;;;;22.43;15.40;98953.44;5092723;28;20103;-76
2022/02/24 01:02:05;;;;;;;13.43;4.50;;;;;;;22.23;15.29;98955.09;5088140;28;20039;-76
2022/02/24 01:04:31;;;;;;;14.35;4.28;;;;;;;22.05;15.26;98950.69;5093089;28;20113;-75
2022/02/24 01:06:57;;;;;;;14.65;4.97;;;;;;;21.97;15.43;98947.09;5073496;28;20064;-75
2022/02/24 01:09:23;;;;;;;10.93;4.40;;;;;;;22.03;15.71;98942.72;5089550;28;20028;-75
2022/02/24 01:11:50;;;;;;;19.85;5.72;;;;;;;22.05;15.43;98948.69;5089112;28;20032;-75
2022/02/24 01:14:16;;;;;;;19.85;4.30;;;;;;;21.87;15.49;98948.69;5085847;28;20030;-76
2022/02/24 01:16:42;;;;;;;10.18;4.40;;;;;;;21.26;15.95;98946.94;5086931;28;20147;-75
2022/02/24 01:19:08;;;;;;;14.68;4.85;;;;;;;21.19;16.14;98946.91;5090381;28;20024;-75
2022/02/24 01:21:34;;;;;;;19.90;5.55;;;;;;;21.58;15.92;98952.63;5082441;28;20028;-75
2022/02/24 01:24:01;;;;;;;15.50;5.40;;;;;;;21.72;15.66;98958.22;5088134;28;20056;-75
2022/02/24 01:26:27;;;;;;;13.13;4.22;;;;;;;21.74;15.40;98955.03;5088218;28;20417;-75
2022/02/24 01:28:53;;;;;;;18.05;4.82;;;;;;;21.86;15.52;98958.28;5089176;28;20016;-75
2022/02/24 01:31:19;;;;;;;17.10;5.07;;;;;;;21.98;15.55;98945.91;5089251;28;20032;-75
2022/02/24 01:33:45;;;;;;;18.60;5.00;;;;;;;22.11;15.86;98946.28;5089951;28;20023;-75
2022/02/24 01:36:13;;;;;;;15.88;4.85;;;;;;;22.22;15.07;98933.13;5088721;28;20492;-75
2022/02/24 01:38:39;;;;;;;16.40;5.00;;;;;;;22.26;14.96;98942.28;5088857;28;20443;-76
2022/02/24 01:41:05;;;;;;;12.85;4.38;;;;;;;21.90;15.68;98941.50;5088502;28;20035;-76
2022/02/24 01:43:31;;;;;;;16.15;4.85;;;;;;;21.91;15.55;98941.09;5085084;28;20041;-76
2022/02/24 01:45:57;;;;;;;12.15;4.22;;;;;;;21.97;15.53;98935.91;5088797;28;20039;-75
2022/02/24 01:48:24;;;;;;;11.93;4.10;;;;;;;21.55;15.91;98941.41;5085910;28;20097;-76
2022/02/24 01:50:50;;;;;;;12.50;4.35;;;;;;;21.19;16.27;98943.34;5080864;28;20043;-76
2022/02/24 01:53:16;;;;;;;13.88;4.25;;;;;;;21.20;16.35;98945.72;5087780;28;20104;-76
2022/02/24 01:55:42;;;;;;;11.93;4.55;;;;;;;21.38;16.14;98947.78;5084719;28;20122;-75
2022/02/24 01:58:09;;;;;;;15.07;5.32;;;;;;;21.28;16.22;98947.31;5086569;28;20082;-73
2022/02/24 02:00:35;;;;;;;14.52;5.18;;;;;;;21.20;16.27;98951.31;5089362;28;20032;-73
2022/02/24 02:03:01;;;;;;;11.23;4.32;;;;;;;21.13;16.47;98954.06;5090879;28;20024;-73
2022/02/24 02:05:30;;;;;;;12.68;4.18;;;;;;;21.50;16.27;98950.19;5089401;28;20481;-73
2022/02/24 02:07:57;;;;;;;19.10;5.07;;;;;;;21.87;15.62;98948.69;5089079;28;20424;-73
2022/02/24 02:10:25;;;;;;;13.35;4.88;;;;;;;21.98;15.46;98949.47;5085153;28;20392;-73
2022/02/24 02:12:55;;;;;;;14.85;4.20;;;;;;;21.36;15.89;98942.56;5088224;28;20386;-73
2022/02/24 02:15:22;;;;;;;17.10;4.97;;;;;;;21.38;15.96;98948.56;5091031;28;20024;-74
2022/02/24 02:17:49;;;;;;;17.20;4.38;;;;;;;21.64;15.68;98955.78;5092568;28;20024;-73
2022/02/24 02:20:16;;;;;;;15.73;4.47;;;;;;;21.90;15.47;98952.69;5090623;28;20036;-74
2022/02/24 02:22:43;;;;;;;11.82;4.30;;;;;;;22.00;15.08;98954.69;5092283;28;20397;-73
2022/02/24 02:25:10;;;;;;;13.77;4.47;;;;;;;22.09;15.09;98954.28;5091880;28;20040;-73
2022/02/24 02:27:39;;;;;;;12.23;3.40;;;;;;;22.12;15.17;98956.28;5093610;28;20396;-74
2022/02/24 02:30:07;;;;;;;15.95;4.47;;;;;;;21.96;15.58;98957.47;5083109;28;20492;-74
2022/02/24 02:32:33;;;;;;;11.55;3.83;;;;;;;22.11;15.37;98957.47;5090083;28;20024;-74
2022/02/24 02:34:59;;;;;;;18.95;4.93;;;;;;;22.11;15.20;98954.69;5072464;28;20085;-74
2022/02/24 02:37:25;;;;;;;20.55;4.95;;;;;;;22.06;15.18;98953.09;5073676;28;20036;-74
2022/02/24 02:39:51;;;;;;;15.05;4.95;;;;;;;21.93;15.07;98955.50;5091397;28;20481;-74
2022/02/24 02:42:17;;;;;;;12.40;4.63;;;;;;;21.66;15.11;98959.00;5091757;28;20025;-74
2022/02/24 02:44:44;;;;;;;15.32;5.20;;;;;;;21.73;15.61;98954.22;5088682;28;20036;-74
2022/02/24 02:47:10;;;;;;;12.35;4.43;;;;;;;21.89;15.32;98956.69;5087334;28;20024;-74
2022/02/24 02:49:38;;;;;;;11.85;4.50;;;;;;;21.67;15.99;98957.81;5091566;28;20550;-74
2022/02/24 02:52:07;;;;;;;11.60;3.80;;;;;;;21.56;15.87;98957.81;5092165;28;20073;-74
2022/02/24 02:54:34;;;;;;;13.93;3.80;;;;;;;21.58;15.88;98960.19;5069288;28;20040;-74
2022/02/24 02:57:01;;;;;;;9.63;3.10;;;;;;;21.12;15.78;98948.91;5088887;28;20393;-74
2022/02/24 02:59:28;;;;;;;16.55;4.00;;;;;;;20.67;16.53;98953.84;5077573;28;20032;-74
2022/02/24 03:01:54;;;;;;;11.98;3.88;;;;;;;20.70;16.54;98954.25;5087712;28;20051;-74
2022/02/24 03:04:22;;;;;;;14.02;4.47;;;;;;;20.96;16.67;98951.97;5081821;28;20040;-74
2022/02/24 03:06:48;;;;;;;11.45;4.32;;;;;;;21.23;16.31;98949.72;5089637;28;20039;-73
2022/02/24 03:09:14;;;;;;;15.70;4.10;;;;;;;21.51;15.77;98949.81;5084122;28;20048;-73
2022/02/24 03:11:40;;;;;;;16.67;4.15;;;;;;;21.52;15.54;98950.59;5087323;28;20689;-73
2022/02/24 03:14:06;;;;;;;16.05;4.88;;;;;;;21.09;15.99;98944.88;5087266;28;20049;-74
2022/02/24 03:16:32;;;;;;;14.18;4.97;;;;;;;21.18;15.79;98936.13;5069267;28;20493;-74
2022/02/24 03:18:58;;;;;;;16.38;4.35;;;;;;;21.01;16.42;98940.44;5089952;28;20031;-74
2022/02/24 03:21:24;;;;;;;17.60;4.38;;;;;;;20.80;16.53;98933.94;5083147;28;20060;-74
2022/02/24 03:23:50;;;;;;;13.18;4.82;;;;;;;20.90;16.32;98947.97;5088902;28;20055;-74
2022/02/24 03:26:17;;;;;;;11.52;3.53;;;;;;;20.64;16.75;98945.44;5088387;28;20062;-74
2022/02/24 03:28:43;;;;;;;11.77;3.60;;;;;;;20.99;16.70;98942.81;5086403;28;20028;-74
2022/02/24 03:31:09;;;;;;;6.88;2.78;;;;;;;21.15;16.33;98937.72;5085141;28;20400;-74
2022/02/24 03:33:37;;;;;;;8.15;3.00;;;;;;;21.30;16.47;98939.38;5089054;28;20395;-74
2022/02/24 03:36:03;;;;;;;9.45;3.38;;;;;;;21.26;15.99;98937.78;5091327;28;20149;-74
2022/02/24 03:38:29;;;;;;;12.95;4.05;;;;;;;21.44;15.60;98946.19;5089774;28;20121;-74
2022/02/24 03:40:55;;;;;;;15.05;4.18;;;;;;;21.61;15.51;98929.44;5086484;28;20051;-74
2022/02/24 03:43:21;;;;;;;18.25;4.82;;;;;;;21.40;15.67;98928.63;5087986;28;20032;-74
2022/02/24 03:45:47;;;;;;;15.50;4.80;;;;;;;21.35;16.07;98930.59;5071629;28;20058;-74
2022/02/24 03:48:13;;;;;;;8.32;3.13;;;;;;;21.25;16.00;98923.00;5088868;28;20031;-74
2022/02/24 03:50:40;;;;;;;8.90;3.33;;;;;;;21.19;16.08;98918.19;5089455;28;20067;-74
2022/02/24 03:53:06;;;;;;;13.02;3.03;;;;;;;21.23;15.78;98919.81;5086286;28;20043;-75
2022/02/24 03:55:32;;;;;;;6.90;3.13;;;;;;;21.48;16.10;98921.84;5088817;28;20036;-74
2022/02/24 03:57:58;;;;;;;12.55;3.40;;;;;;;21.44;16.13;98924.66;5087334;28;20396;-74
2022/02/24 04:00:24;;;;;;;16.13;3.40;;;;;;;21.04;16.25;98919.31;5088347;28;20476;-74
2022/02/24 04:02:50;;;;;;;10.40;3.10;;;;;;;21.10;16.43;98926.94;5088988;28;20478;-74
2022/02/24 04:05:16;;;;;;;9.32;2.95;;;;;;;21.22;16.41;98920.19;5092067;28;20039;-74
2022/02/24 04:07:42;;;;;;;9.23;2.30;;;;;;;21.09;16.38;98921.75;5091451;28;20036;-74
2022/02/24 04:10:09;;;;;;;13.30;2.97;;;;;;;21.04;16.80;98914.56;5086628;28;20382;-74
2022/02/24 04:12:35;;;;;;;10.77;2.60;;;;;;;20.91;17.00;98913.25;5093387;28;20040;-74
2022/02/24 04:15:02;;;;;;;7.25;2.45;;;;;;;20.63;17.17;98910.38;5074374;28;20465;-74
2022/02/24 04:17:28;;;;;;;6.05;2.08;;;;;;;20.77;17.11;98913.19;5092873;28;20051;-75
2022/02/24 04:19:54;;;;;;;9.43;2.55;;;;;;;20.94;17.22;98911.66;5092387;28;20031;-74
2022/02/24 04:22:21;;;;;;;8.35;2.50;;;;;;;21.00;17.13;98904.53;5092780;28;20032;-75
2022/02/24 04:24:47;;;;;;;7.47;2.20;;;;;;;20.78;17.18;98903.63;5083835;28;20083;-74
2022/02/24 04:27:13;;;;;;;10.80;3.13;;;;;;;20.86;17.09;98902.50;5093873;28;20051;-75
2022/02/24 04:29:39;;;;;;;9.48;3.22;;;;;;;20.64;17.16;98892.41;5086223;28;20032;-74
2022/02/24 04:32:06;;;;;;;5.50;2.17;;;;;;;20.58;17.40;98899.56;5091621;28;20032;-74
2022/02/24 04:34:32;;;;;;;7.97;2.15;;;;;;;19.60;18.09;98902.41;5092917;28;20077;-75
2022/02/24 04:36:58;;;;;;;6.25;2.15;;;;;;;19.76;18.19;98897.38;5091400;28;20082;-75
2022/02/24 04:39:24;;;;;;;9.70;2.53;;;;;;;19.48;18.22;98897.13;5092234;28;20028;-74
2022/02/24 04:41:50;;;;;;;11.88;2.47;;;;;;;19.41;18.74;98889.50;5091975;28;20020;-75
2022/02/24 04:44:16;;;;;;;11.57;2.65;;;;;;;19.07;19.17;98882.34;5093866;28;20092;-75
2022/02/24 04:46:42;;;;;;;6.63;2.25;;;;;;;19.04;18.74;98889.47;5088677;28;20405;-74
2022/02/24 04:49:09;;;;;;;6.85;2.17;;;;;;;18.86;18.95;98893.22;5083398;28;20025;-75
2022/02/24 04:51:35;;;;;;;6.75;2.47;;;;;;;19.01;18.98;98889.44;5091441;28;20036;-74
2022/02/24 04:54:01;;;;;;;9.88;2.78;;;;;;;19.60;18.60;98889.28;5093277;28;20051;-75
2022/02/24 04:56:27;;;;;;;8.73;2.72;;;;;;;19.99;17.82;98887.63;5094067;28;20173;-74
2022/02/24 04:58:53;;;;;;;7.93;2.60;;;;;;;20.53;17.14;98884.00;5088421;28;20043;-74
2022/02/24 05:01:19;;;;;;;7.05;2.50;;;;;;;20.45;17.06;98881.53;5093326;28;20404;-75
2022/02/24 05:03:45;;;;;;;5.93;2.33;;;;;;;20.63;17.18;98876.88;5093729;28;20026;-74
2022/02/24 05:06:11;;;;;;;6.25;1.98;;;;;;;20.17;17.38;98884.13;5094004;28;20036;-75
2022/02/24 05:08:38;;;;;;;6.57;2.10;;;;;;;19.83;17.28;98878.72;5093869;28;20846;-75
2022/02/24 05:11:04;;;;;;;6.65;1.92;;;;;;;19.62;17.75;98869.41;5088929;28;20099;-75
2022/02/24 05:13:30;;;;;;;8.27;2.35;;;;;;;19.56;17.91;98865.34;5092367;28;20079;-75
2022/02/24 05:15:56;;;;;;;7.18;1.80;;;;;;;19.72;17.46;98866.69;5087856;28;20029;-75
2022/02/24 05:18:22;;;;;;;7.20;2.50;;;;;;;19.41;17.72;98853.31;5085095;28;20028;-75
2022/02/24 05:20:48;;;;;;;4.93;2.25;;;;;;;19.51;17.56;98852.56;5093408;28;20028;-75
2022/02/24 05:23:14;;;;;;;9.80;2.70;;;;;;;19.63;17.91;98848.69;5074172;28;20028;-75
2022/02/24 05:25:40;;;;;;;8.43;2.35;;;;;;;19.72;17.46;98849.97;5087842;28;20521;-75
2022/02/24 05:28:08;;;;;;;3.83;2.05;;;;;;;19.69;17.25;98849.94;5092327;28;20020;-75
2022/02/24 05:30:34;;;;;;;4.93;2.00;;;;;;;19.79;16.97;98847.22;5090680;28;20081;-75
2022/02/24 05:33:00;;;;;;;7.50;2.03;;;;;;;19.93;17.05;98847.34;5070656;28;20027;-74
2022/02/24 05:35:26;;;;;;;9.25;2.40;;;;;;;19.87;17.00;98845.31;5085002;28;20468;-74
2022/02/24 05:37:52;;;;;;;6.43;1.60;;;;;;;19.70;17.17;98848.75;5086021;28;20027;-75
2022/02/24 05:40:19;;;;;;;7.60;2.58;;;;;;;19.69;17.20;98839.63;5069126;28;20034;-76
2022/02/24 05:42:46;;;;;;;8.32;2.38;;;;;;;20.07;17.14;98843.84;5083016;28;20032;-74
2022/02/24 05:45:12;;;;;;;3.60;1.88;;;;;;;19.98;17.05;98841.41;5085928;28;20486;-74
2022/02/24 05:47:38;;;;;;;11.57;2.22;;;;;;;19.78;17.44;98831.72;5093895;28;20036;-74
2022/02/24 05:50:08;;;;;;;7.95;2.22;;;;;;;19.77;17.12;98844.03;5093183;28;20027;-74
2022/02/24 05:52:35;;;;;;;11.75;2.50;;;;;;;19.66;17.29;98840.38;5093004;28;20051;-74
2022/02/24 05:55:01;;;;;;;10.10;2.38;;;;;;;19.28;18.01;98847.16;5093530;28;20088;-74
2022/02/24 05:57:27;;;;;;;8.73;2.60;;;;;;;18.84;18.74;98851.06;5084209;28;20116;-74
2022/02/24 05:59:53;;;;;;;8.55;2.45;;;;;;;18.77;18.57;98845.41;5093967;28;20038;-74
2022/02/24 06:02:19;;;;;;;4.88;2.28;;;;;;;19.18;18.14;98844.28;5083108;28;20062;-74
2022/02/24 06:04:45;;;;;;;4.05;1.85;;;;;;;19.42;18.04;98840.19;5087629;28;20032;-74
2022/02/24 06:07:11;;;;;;;8.25;2.22;;;;;;;19.31;17.94;98846.41;5088590;28;20378;-74
2022/02/24 06:09:38;;;;;;;7.60;2.03;;;;;;;19.42;18.07;98845.75;5071176;28;20036;-74
2022/02/24 06:12:04;;;;;;;5.45;1.92;;;;;;;19.72;17.99;98844.41;5089834;28;20111;-74
2022/02/24 06:14:30;;;;;;;6.82;1.75;;;;;;;19.87;18.06;98837.75;5080192;28;20061;-74
2022/02/24 06:16:57;;;;;;;6.78;2.40;;;;;;;19.00;18.99;98832.97;5089365;28;20477;-74
2022/02/24 06:19:23;;;;;;;8.48;2.03;;;;;;;18.28;19.54;98826.09;5090345;28;20028;-74
2022/02/24 06:21:52;;;;;;;8.07;2.55;;;;;;;17.53;20.68;98831.72;5088013;28;20040;-75
2022/02/24 06:24:18;;;;;;;7.35;2.30;;;;;;;18.15;19.94;98816.41;5089329;28;20501;-75
2022/02/24 06:26:44;;;;;;;8.93;2.58;;;;;;;17.41;20.92;98818.03;5088154;28;20036;-75
2022/02/24 06:29:10;;;;;;;9.65;3.45;;;;;;;16.84;21.74;98828.13;5086395;28;20397;-74
2022/02/24 06:31:37;;;;;;;9.13;2.40;;;;;;;17.13;21.81;98823.88;5073386;28;20421;-75
2022/02/24 06:34:04;;;;;;;7.32;1.90;;;;;;;17.76;20.88;98821.41;5077799;28;20028;-74
2022/02/24 06:36:30;;;;;;;6.40;3.63;;;;;;;16.80;22.12;98827.28;5092879;28;20040;-75
2022/02/24 06:38:57;;;;;;;7.18;2.28;;;;;;;17.00;21.76;98825.25;5068881;28;20035;-74
2022/02/24 06:41:24;;;;;;;8.80;2.90;;;;;;;17.06;22.04;98829.34;5093271;28;20038;-75
2022/02/24 06:43:50;;;;;;;9.93;2.17;;;;;;;18.25;20.59;98810.97;5093639;28;20047;-74
2022/02/24 06:46:20;;;;;;;9.18;2.15;;;;;;;17.91;20.93;98818.47;5086510;28;20097;-75
2022/02/24 06:48:47;;;;;;;8.20;2.92;;;;;;;18.45;20.29;98828.31;5073168;28;20021;-75
2022/02/24 06:51:13;;;;;;;6.53;2.22;;;;;;;19.08;20.22;98828.28;5086270;28;20119;-77
2022/02/24 06:53:39;;;;;;;4.50;2.15;;;;;;;19.75;19.20;98824.13;5075725;28;20381;-75
2022/02/24 06:56:05;;;;;;;12.50;2.53;;;;;;;20.07;18.86;98820.75;5080608;28;20047;-75
2022/02/24 06:58:31;;;;;;;7.35;2.60;;;;;;;20.23;18.91;98824.88;5093481;28;20405;-75
2022/02/24 07:01:02;;;;;;;10.55;2.17;;;;;;;20.21;18.68;98823.63;5082116;28;20036;-75
2022/02/24 07:03:29;;;;;;;7.78;2.65;;;;;;;20.63;19.11;98815.50;5097634;28;20039;-74
2022/02/24 07:05:55;;;;;;;7.80;2.42;;;;;;;20.76;18.29;98813.13;5097568;28;20062;-74
2022/02/24 07:08:21;;;;;;;7.78;2.00;;;;;;;20.70;18.58;98812.69;5095944;28;20040;-75
2022/02/24 07:10:48;;;;;;;8.57;2.35;;;;;;;21.03;18.28;98812.41;5096675;28;20032;-76
2022/02/24 07:13:14;;;;;;;7.78;2.13;;;;;;;21.42;18.10;98812.50;5097320;28;20107;-75
2022/02/24 07:15:40;;;;;;;5.82;2.40;;;;;;;21.51;17.72;98803.72;5096903;28;20024;-75
2022/02/24 07:18:06;;;;;;;6.78;2.35;;;;;;;21.31;17.97;98800.50;5096699;28;20028;-76
2022/02/24 07:20:32;;;;;;;8.23;2.45;;;;;;;21.64;18.13;98802.09;5089420;28;20028;-75
2022/02/24 07:22:58;;;;;;;10.57;2.35;;;;;;;21.75;17.66;98791.72;5096543;28;20039;-76
2022/02/24 07:25:25;;;;;;;6.78;2.10;;;;;;;22.38;17.07;98797.16;5095422;28;20056;-75
2022/02/24 07:27:51;;;;;;;7.75;2.58;;;;;;;22.26;17.38;98789.25;5096610;28;20043;-75
2022/02/24 07:30:17;;;;;;;8.52;2.40;;;;;;;22.22;17.59;98785.63;5096351;28;20032;-75
2022/02/24 07:32:43;;;;;;;8.85;3.20;;;;;;;21.56;17.66;98776.19;5097479;28;20032;-76
2022/02/24 07:35:09;;;;;;;8.30;1.80;;;;;;;22.08;17.72;98782.09;5096418;28;20393;-75
2022/02/24 07:37:36;;;;;;;7.15;2.58;;;;;;;21.92;17.20;98782.53;5096235;28;20032;-75
2022/02/24 07:40:03;;;;;;;10.65;2.35;;;;;;;22.18;17.58;98776.47;5096617;28;20028;-75
2022/02/24 07:42:30;;;;;;;7.30;2.38;;;;;;;21.98;18.29;98770.53;5096536;28;20032;-75
2022/02/24 07:44:56;;;;;;;10.55;2.50;;;;;;;21.88;17.58;98774.16;5095794;28;20498;-75
2022/02/24 07:47:22;;;;;;;6.15;1.30;;;;;;;22.85;17.23;98778.97;5076370;28;20370;-75
2022/02/24 07:49:48;;;;;;;9.38;2.75;;;;;;;22.98;16.51;98773.72;5096059;28;20047;-74
2022/02/24 07:52:15;;;;;;;4.93;1.75;;;;;;;22.37;17.16;98769.59;5096328;28;20024;-75
2022/02/24 07:54:41;;;;;;;7.03;2.03;;;;;;;22.66;17.03;98765.50;5095946;28;20047;-75
2022/02/24 07:57:08;;;;;;;4.50;1.55;;;;;;;22.47;17.14;98757.56;5096680;28;20081;-75
2022/02/24 07:59:34;;;;;;;6.75;1.83;;;;;;;23.12;16.63;98759.63;5095318;28;20378;-75
2022/02/24 08:02:01;;;;;;;7.45;2.20;;;;;;;22.65;17.64;98753.53;5096312;28;20149;-75
2022/02/24 08:04:27;;;;;;;5.97;1.45;;;;;;;23.35;16.76;98748.66;5095895;28;20460;-75
2022/02/24 08:06:53;;;;;;;6.57;1.55;;;;;;;23.54;16.20;98747.28;5096263;28;20028;-75
2022/02/24 08:09:19;;;;;;;5.82;1.55;;;;;;;22.55;16.19;98739.53;5095480;28;20028;-75
2022/02/24 08:12:38;;;;;;;4.97;1.60;;;;;;;22.92;16.41;98742.53;5096105;28;20403;-75
2022/02/24 08:14:32;;;;;;;4.65;1.25;;;;;;;23.22;15.85;98736.34;5081508;28;20048;-75
2022/02/24 08:16:58;;;;;;;2.75;1.30;;;;;;;22.75;16.43;98729.47;5088326;28;20028;-75
2022/02/24 08:19:24;;;;;;;3.92;1.30;;;;;;;23.08;16.22;98734.41;5076919;28;20032;-75
2022/02/24 08:21:50;;;;;;;5.63;2.03;;;;;;;23.07;16.01;98729.22;5096284;28;20025;-75
2022/02/24 08:24:16;;;;;;;4.80;1.30;;;;;;;22.89;16.53;98717.38;5077408;28;20052;-76
2022/02/24 08:26:42;;;;;;;2.63;1.38;;;;;;;22.74;16.76;98722.25;5095879;28;20032;-76
2022/02/24 08:29:08;;;;;;;5.38;1.40;;;;;;;23.63;15.72;98716.75;5076818;28;20028;-75
2022/02/24 08:31:34;;;;;;;3.30;1.10;;;;;;;23.73;15.06;98711.06;5095361;28;20036;-76
2022/02/24 08:34:00;;;;;;;4.13;1.40;;;;;;;24.38;14.98;98700.69;5095597;28;20042;-75
2022/02/24 08:36:27;;;;;;;6.18;1.40;;;;;;;23.81;14.69;98692.94;5095995;28;20024;-75
2022/02/24 08:38:53;;;;;;;4.35;1.15;;;;;;;24.07;14.89;98699.06;5095045;28;20036;-76
2022/02/24 08:41:19;;;;;;;4.90;1.60;;;;;;;24.13;14.89;98687.00;5095332;28;20077;-76
2022/02/24 08:43:45;;;;;;;7.35;1.48;;;;;;;24.29;14.80;98694.81;5082221;28;20504;-75
2022/02/24 08:46:12;;;;;;;4.43;1.50;;;;;;;24.18;14.87;98688.53;5093005;28;20043;-75
2022/02/24 08:48:38;;;;;;;3.63;1.27;;;;;;;24.59;15.69;98691.97;5094505;28;20541;-76
2022/02/24 08:51:04;;;;;;;4.93;1.33;;;;;;;25.56;14.48;98681.59;5076546;28;20469;-75
2022/02/24 08:53:30;;;;;;;3.80;1.10;;;;;;;25.52;14.39;98683.69;5084492;28;20131;-76
2022/02/24 08:55:56;;;;;;;3.03;0.90;;;;;;;25.49;14.50;98682.53;5074855;28;20025;-76
2022/02/24 08:58:22;;;;;;;3.20;1.60;;;;;;;24.60;14.16;98682.31;5080506;28;20035;-75
2022/02/24 09:00:49;;;;;;;3.75;1.70;;;;;;;24.86;14.09;98663.91;5075540;28;20020;-75
2022/02/24 09:03:16;;;;;;;3.08;1.17;;;;;;;24.98;14.92;98661.31;5074845;28;20054;-75
2022/02/24 09:05:44;;;;;;;2.45;1.20;;;;;;;24.93;13.80;98661.78;5074665;28;20032;-75
2022/02/24 09:08:11;;;;;;;3.25;1.00;;;;;;;24.88;14.25;98665.06;5083067;28;20129;-75
2022/02/24 09:10:38;;;;;;;5.57;1.23;;;;;;;24.51;13.74;98654.78;5095019;28;20024;-75
2022/02/24 09:13:04;;;;;;;4.72;1.20;;;;;;;24.22;13.82;98642.38;5094958;28;20048;-75
2022/02/24 09:15:35;;;;;;;8.63;1.67;;;;;;;24.54;14.22;98644.72;5076785;28;20031;-75
2022/02/24 09:18:02;;;;;;;1.77;1.35;;;;;;;24.44;14.34;98626.81;5094678;28;20042;-75
2022/02/24 09:20:29;;;;;;;2.40;1.00;;;;;;;24.26;14.42;98628.28;5094757;28;20040;-75
2022/02/24 09:22:55;;;;;;;4.25;1.30;;;;;;;24.41;14.45;98629.69;5095048;28;20110;-75
2022/02/24 09:25:23;;;;;;;4.63;1.98;;;;;;;23.90;13.92;98630.72;5073719;28;20059;-76
2022/02/24 09:27:51;;;;;;;2.47;1.20;;;;;;;24.17;14.00;98622.41;5094051;28;20115;-75
2022/02/24 09:30:18;;;;;;;4.07;1.10;;;;;;;24.78;13.59;98615.50;5094824;28;20032;-75
2022/02/24 09:32:44;;;;;;;2.45;1.42;;;;;;;25.37;12.81;98612.84;5094465;28;20029;-75
2022/02/24 09:35:13;;;;;;;1.60;0.85;;;;;;;25.09;13.54;98610.53;5093866;28;20040;-75
2022/02/24 09:37:40;;;;;;;3.72;1.13;;;;;;;25.98;12.95;98599.97;5094612;28;20024;-75
2022/02/24 09:40:08;;;;;;;2.65;1.10;;;;;;;26.16;12.19;98596.81;5094376;28;20036;-75
2022/02/24 09:42:35;;;;;;;3.92;1.00;;;;;;;26.42;11.87;98597.84;5093763;28;20063;-75
2022/02/24 09:45:03;;;;;;;2.70;0.90;;;;;;;26.43;12.52;98588.94;5093874;28;20036;-76
2022/02/24 09:47:30;;;;;;;3.38;1.13;;;;;;;26.24;12.80;98578.53;5093645;28;20473;-75
2022/02/24 09:49:59;;;;;;;2.38;0.90;;;;;;;25.75;12.19;98577.56;5094351;28;20032;-75
2022/02/24 09:52:25;;;;;;;2.53;0.95;;;;;;;25.72;12.73;98569.97;5081758;28;20028;-75
2022/02/24 09:54:52;;;;;;;1.70;0.80;;;;;;;26.08;11.65;98553.94;5093724;28;20043;-75
2022/02/24 09:57:18;;;;;;;5.15;0.80;;;;;;;25.87;12.41;98553.59;5094052;28;20024;-75
2022/02/24 09:59:44;;;;;;;1.92;0.85;;;;;;;26.14;12.04;98547.81;5093311;28;20036;-75
2022/02/24 10:02:15;;;;;;;1.17;0.70;;;;;;;26.69;11.75;98542.84;5088678;28;20088;-75
2022/02/24 10:05:05;;;;;;;1.88;0.73;;;;;;;27.17;11.03;98538.38;5093829;28;20389;-74
2022/02/24 10:07:35;;;;;;;2.03;0.85;;;;;;;27.22;11.82;98527.38;5094182;28;20173;-75
2022/02/24 10:10:31;;;;;;;2.53;0.75;;;;;;;26.77;10.41;98520.94;5093026;28;20508;-75
2022/02/24 10:13:08;;;;;;;2.28;0.90;;;;;;;25.91;11.22;98520.56;5075117;28;20024;-75
2022/02/24 10:15:39;;;;;;;2.10;0.80;;;;;;;26.17;11.90;98508.31;5093065;28;20043;-75
2022/02/24 10:18:14;;;;;;;1.45;0.68;;;;;;;26.42;11.46;98502.88;5093745;28;20028;-75
2022/02/24 10:20:51;;;;;;;1.20;0.70;;;;;;;26.29;11.18;98493.56;5093139;28;20035;-75
2022/02/24 10:23:20;;;;;;;3.70;0.88;;;;;;;26.80;11.89;98491.88;5093102;28;20075;-75
2022/02/24 10:25:51;;;;;;;4.65;0.70;;;;;;;26.14;11.68;98491.53;5092602;28;20504;-75
2022/02/24 10:28:38;;;;;;;1.65;0.80;;;;;;;25.67;11.39;98486.13;5087801;28;20020;-75
2022/02/24 10:31:12;;;;;;;1.17;0.55;;;;;;;26.70;11.50;98476.81;5093808;28;20073;-75
2022/02/24 10:33:42;;;;;;;1.13;0.63;;;;;;;26.59;11.18;98473.47;5075214;28;20100;-75
2022/02/24 10:36:16;;;;;;;2.70;0.70;;;;;;;26.32;11.53;98460.94;5092725;28;20024;-75
2022/02/24 10:38:57;;;;;;;1.77;0.70;;;;;;;25.47;11.94;98457.25;5093026;28;20028;-75
2022/02/24 10:41:31;;;;;;;1.38;0.75;;;;;;;26.73;11.75;98458.22;5093292;28;20048;-75
2022/02/24 10:44:20;;;;;;;4.25;0.82;;;;;;;24.40;11.92;98440.81;5083618;28;20066;-75
2022/02/24 10:47:09;;;;;;;2.70;0.70;;;;;;;25.36;11.85;98436.97;5090318;28;20115;-76
2022/02/24 10:49:41;;;;;;;2.40;1.05;;;;;;;26.01;11.25;98435.91;5091283;28;20067;-75
2022/02/24 10:52:14;;;;;;;1.65;0.70;;;;;;;26.10;11.49;98429.69;5072266;28;20162;-75
2022/02/24 10:54:42;;;;;;;1.25;0.70;;;;;;;26.04;11.36;98434.25;5081506;28;20366;-76
2022/02/24 10:57:21;;;;;;;2.53;1.25;;;;;;;26.59;10.81;98417.16;5081666;28;20081;-75
2022/02/24 10:59:57;;;;;;;3.15;1.17;;;;;;;26.33;11.16;98420.25;5092236;28;20032;-75
2022/02/24 11:02:28;;;;;;;2.92;0.70;;;;;;;27.01;10.83;98409.56;5093480;28;20130;-75
2022/02/24 11:04:55;;;;;;;3.50;1.05;;;;;;;26.60;11.35;98410.31;5093160;28;20118;-75
2022/02/24 11:07:22;;;;;;;1.92;0.70;;;;;;;27.21;9.86;98395.31;5074503;28;20507;-75
2022/02/24 11:09:48;;;;;;;1.70;0.80;;;;;;;27.32;10.81;98393.75;5074428;28;20028;-75
2022/02/24 11:12:16;;;;;;;1.77;0.68;;;;;;;27.74;9.95;98390.88;5092870;28;20085;-76
2022/02/24 11:14:46;;;;;;;3.58;0.90;;;;;;;26.75;11.13;98388.19;5092981;28;20032;-75
2022/02/24 11:17:13;;;;;;;2.08;0.77;;;;;;;27.50;10.78;98378.34;5092616;28;20058;-76
2022/02/24 11:19:41;;;;;;;1.35;0.70;;;;;;;27.59;9.97;98379.25;5092906;28;20033;-76
2022/02/24 11:22:08;;;;;;;2.03;1.10;;;;;;;27.85;9.22;98382.84;5092542;28;20032;-76
2022/02/24 11:24:35;;;;;;;2.05;1.00;;;;;;;27.47;10.46;98376.44;5091961;28;20120;-77
2022/02/24 11:27:32;;;;;;;2.35;0.80;;;;;;;28.47;9.89;98376.31;5092726;28;20044;-77
2022/02/24 11:30:04;;;;;;;1.77;0.73;;;;;;;28.93;9.77;98357.75;5087897;28;20131;-76
2022/02/24 11:32:31;;;;;;;4.45;1.00;;;;;;;27.57;9.93;98370.44;5072783;28;20039;-77